Map

Track Data

SID SEASON NUMBER BASIN SUBBASIN NAME ISO_TIME NATURE LAT LON WMO_WIND WMO_PRES WMO_AGENCY TRACK_TYPE DIST2LAND LANDFALL IFLAG USA_AGENCY USA_ATCF_ID USA_LAT USA_LON USA_RECORD USA_STATUS USA_WIND USA_PRES USA_SSHS USA_R34_NE USA_R34_SE USA_R34_SW USA_R34_NW USA_R50_NE USA_R50_SE USA_R50_SW USA_R50_NW USA_R64_NE USA_R64_SE USA_R64_SW USA_R64_NW USA_POCI USA_ROCI USA_RMW USA_EYE TOKYO_LAT TOKYO_LON TOKYO_GRADE TOKYO_WIND TOKYO_PRES TOKYO_R50_DIR TOKYO_R50_LONG TOKYO_R50_SHORT TOKYO_R30_DIR TOKYO_R30_LONG TOKYO_R30_SHORT TOKYO_LAND CMA_LAT CMA_LON CMA_CAT CMA_WIND CMA_PRES HKO_LAT HKO_LON HKO_CAT HKO_WIND HKO_PRES NEWDELHI_LAT NEWDELHI_LON NEWDELHI_GRADE NEWDELHI_WIND NEWDELHI_PRES NEWDELHI_CI NEWDELHI_DP NEWDELHI_POCI REUNION_LAT REUNION_LON REUNION_TYPE REUNION_WIND REUNION_PRES REUNION_TNUM REUNION_CI REUNION_RMW REUNION_R34_NE REUNION_R34_SE REUNION_R34_SW REUNION_R34_NW REUNION_R50_NE REUNION_R50_SE REUNION_R50_SW REUNION_R50_NW REUNION_R64_NE REUNION_R64_SE REUNION_R64_SW REUNION_R64_NW BOM_LAT BOM_LON BOM_TYPE BOM_WIND BOM_PRES BOM_TNUM BOM_CI BOM_RMW BOM_R34_NE BOM_R34_SE BOM_R34_SW BOM_R34_NW BOM_R50_NE BOM_R50_SE BOM_R50_SW BOM_R50_NW BOM_R64_NE BOM_R64_SE BOM_R64_SW BOM_R64_NW BOM_ROCI BOM_POCI BOM_EYE BOM_POS_METHOD BOM_PRES_METHOD NADI_LAT NADI_LON NADI_CAT NADI_WIND NADI_PRES WELLINGTON_LAT WELLINGTON_LON WELLINGTON_WIND WELLINGTON_PRES DS824_LAT DS824_LON DS824_STAGE DS824_WIND DS824_PRES TD9636_LAT TD9636_LON TD9636_STAGE TD9636_WIND TD9636_PRES TD9635_LAT TD9635_LON TD9635_WIND TD9635_PRES TD9635_ROCI NEUMANN_LAT NEUMANN_LON NEUMANN_CLASS NEUMANN_WIND NEUMANN_PRES MLC_LAT MLC_LON MLC_CLASS MLC_WIND MLC_PRES USA_GUST BOM_GUST BOM_GUST_PER REUNION_GUST REUNION_GUST_PER USA_SEAHGT USA_SEARAD_NE USA_SEARAD_SE USA_SEARAD_SW USA_SEARAD_NW STORM_SPEED STORM_DIR
1900061S15124 1900 7 SI WA NOT_NAMED 1900-03-01 12:00:00 NR -14.7000 124.400 main 70 69 __________O___ -1 -14.7000 124.400 7 8 245
1900061S15124 1900 7 SI WA NOT_NAMED 1900-03-01 15:00:00 NR -14.8552 124.047 main 89 89 __________P___ -1 -14.8552 124.047 7 7 245
1900061S15124 1900 7 SI WA NOT_NAMED 1900-03-01 18:00:00 NR -15.0181 123.705 main 100 100 __________P___ -1 -15.0181 123.705 7 7 242
1900061S15124 1900 7 SI WA NOT_NAMED 1900-03-01 21:00:00 NR -15.1969 123.386 main 116 104 __________P___ -1 -15.1969 123.386 7 7 237
1900061S15124 1900 7 SI WA NOT_NAMED 1900-03-02 00:00:00 NR -15.4000 123.100 main 110 100 __________O___ -1 -15.4000 123.100 7 7 230
1900061S15124 1900 7 SI WA NOT_NAMED 1900-03-02 03:00:00 NR -15.6323 122.856 main 100 70 __________P___ -1 -15.6323 122.856 7 7 222
1900061S15124 1900 7 SI WA NOT_NAMED 1900-03-02 06:00:00 NR -15.8847 122.647 main 74 61 __________P___ -1 -15.8847 122.647 7 6 216
1900061S15124 1900 7 SI WA NOT_NAMED 1900-03-02 09:00:00 NR -16.1448 122.465 main 61 54 __________P___ -1 -16.1448 122.465 7 6 213
1900061S15124 1900 7 SI WA NOT_NAMED 1900-03-02 12:00:00 NR -16.4000 122.300 main 54 46 __________O___ -1 -16.4000 122.300 7 6 211
1900061S15124 1900 7 SI WA NOT_NAMED 1900-03-02 15:00:00 NR -16.6361 122.152 main 46 38 __________P___ -1 -16.6361 122.152 7 5 211
1900061S15124 1900 7 SI WA NOT_NAMED 1900-03-02 18:00:00 NR -16.8647 122.015 main 38 33 __________P___ -1 -16.8647 122.015 7 5 211
1900061S15124 1900 7 SI WA NOT_NAMED 1900-03-02 21:00:00 NR -17.0860 121.870 main 38 38 __________P___ -1 -17.0860 121.870 7 5 215
1900061S15124 1900 7 SI WA NOT_NAMED 1900-03-03 00:00:00 NR -17.3000 121.700 main 53 53 __________O___ -1 -17.3000 121.700 7 6 223
1900061S15124 1900 7 SI WA NOT_NAMED 1900-03-03 03:00:00 NR -17.4910 121.475 main 64 64 __________P___ -1 -17.4910 121.475 7 6 230
1900061S15124 1900 7 SI WA NOT_NAMED 1900-03-03 06:00:00 NR -17.6776 121.222 main 96 96 __________P___ -1 -17.6776 121.222 7 6 232
1900061S15124 1900 7 SI WA NOT_NAMED 1900-03-03 09:00:00 NR -17.8754 120.959 main 107 107 __________P___ -1 -17.8754 120.959 7 7 230
1900061S15124 1900 7 SI WA NOT_NAMED 1900-03-03 12:00:00 NR -18.1000 120.700 main 119 119 __________O___ -1 -18.1000 120.700 7 7 222
1900061S15124 1900 7 SI WA NOT_NAMED 1900-03-03 15:00:00 NR -18.3914 120.472 main 128 118 __________P___ -1 -18.3914 120.472 7 7 215
1900061S15124 1900 7 SI WA NOT_NAMED 1900-03-03 18:00:00 NR -18.7073 120.250 main 118 98 __________P___ -1 -18.7073 120.250 7 8 214
1900061S15124 1900 7 SI WA NOT_NAMED 1900-03-03 21:00:00 NR -19.0195 120.028 main 102 78 __________P___ -1 -19.0195 120.028 7 7 216
1900061S15124 1900 7 SI WA NOT_NAMED 1900-03-04 00:00:00 NR -19.3000 119.800 main 78 59 __________O___ -1 -19.3000 119.800 7 7 221
1900061S15124 1900 7 SI WA NOT_NAMED 1900-03-04 03:00:00 NR -19.5148 119.565 main 59 44 __________P___ -1 -19.5148 119.565 7 6 229
1900061S15124 1900 7 SI WA NOT_NAMED 1900-03-04 06:00:00 NR -19.6948 119.322 main 44 33 __________P___ -1 -19.6948 119.322 7 6 234
1900061S15124 1900 7 SI WA NOT_NAMED 1900-03-04 09:00:00 NR -19.8523 119.068 main 22 22 __________P___ -1 -19.8523 119.068 7 6 238
1900061S15124 1900 7 SI WA NOT_NAMED 1900-03-04 12:00:00 NR -20.0000 118.800 main 30 22 __________O___ -1 -20.0000 118.800 7 6 238
1900061S15124 1900 7 SI WA NOT_NAMED 1900-03-04 15:00:00 NR -20.1732 118.531 main 22 11 __________P___ -1 -20.1732 118.531 7 6 237
1900061S15124 1900 7 SI WA NOT_NAMED 1900-03-04 18:00:00 NR -20.3371 118.245 main 11 0 __________P___ -1 -20.3371 118.245 7 6 241
1900061S15124 1900 7 SI WA NOT_NAMED 1900-03-04 21:00:00 NR -20.4825 117.937 main 0 0 __________P___ -1 -20.4825 117.937 7 7 246
1900061S15124 1900 7 SI WA NOT_NAMED 1900-03-05 00:00:00 NR -20.6000 117.600 main 22 0 __________O___ -1 -20.6000 117.600 7 7 254
1900061S15124 1900 7 SI WA NOT_NAMED 1900-03-05 03:00:00 NR -20.6666 117.228 main 0 0 __________P___ -1 -20.6666 117.228 7 7 262
1900061S15124 1900 7 SI WA NOT_NAMED 1900-03-05 06:00:00 NR -20.7075 116.829 main 0 0 __________P___ -1 -20.7075 116.829 7 8 264
1900061S15124 1900 7 SI WA NOT_NAMED 1900-03-05 09:00:00 NR -20.7447 116.416 main 15 10 __________P___ -1 -20.7447 116.416 7 8 263
1900061S15124 1900 7 SI WA NOT_NAMED 1900-03-05 12:00:00 NR -20.8000 116.000 main 23 23 __________O___ -1 -20.8000 116.000 7 9 266
1900061S15124 1900 7 SI WA NOT_NAMED 1900-03-05 15:00:00 NR -20.8106 115.467 main 53 53 __________P___ -1 -20.8106 115.467 7 10 267
1900061S15124 1900 7 SI WA NOT_NAMED 1900-03-05 18:00:00 NR -20.8556 114.955 main 80 80 __________P___ -1 -20.8556 114.955 7 9 257
1900061S15124 1900 7 SI WA NOT_NAMED 1900-03-05 21:00:00 NR -20.9976 114.566 main 84 59 __________P___ -1 -20.9976 114.566 7 7 229
1900061S15124 1900 7 SI WA NOT_NAMED 1900-03-06 00:00:00 NR -21.3000 114.400 main 59 10 __________O___ -1 -21.3000 114.400 7 9 181
1900061S15124 1900 7 SI WA NOT_NAMED 1900-03-06 03:00:00 NR -21.8423 114.550 main 10 0 __________P___ -1 -21.8423 114.550 7 13 158
1900061S15124 1900 7 SI WA NOT_NAMED 1900-03-06 06:00:00 NR -22.5422 114.933 main 0 0 __________P___ -1 -22.5422 114.933 7 17 150
1900061S15124 1900 7 SI WA NOT_NAMED 1900-03-06 09:00:00 NR -23.3208 115.475 main 0 0 __________P___ -1 -23.3208 115.475 7 19 145
1900061S15124 1900 7 SI WA NOT_NAMED 1900-03-06 12:00:00 NR -24.1000 116.100 main 0 0 __________O___ -1 -24.1000 116.100 7 18 142
1900061S15124 1900 7 SI WA NOT_NAMED 1900-03-06 15:00:00 NR -24.7111 116.658 main 0 0 __________P___ -1 -24.7111 116.658 7 16 139
1900061S15124 1900 7 SI WA NOT_NAMED 1900-03-06 18:00:00 NR -25.3166 117.280 main 0 0 __________P___ -1 -25.3166 117.280 7 17 137
1900061S15124 1900 7 SI WA NOT_NAMED 1900-03-06 21:00:00 NR -25.9637 117.963 main 0 0 __________P___ -1 -25.9637 117.963 7 19 137
1900061S15124 1900 7 SI WA NOT_NAMED 1900-03-07 00:00:00 NR -26.7000 118.700 main 0 0 __________O___ -1 -26.7000 118.700 7 21 140
1900061S15124 1900 7 SI WA NOT_NAMED 1900-03-07 03:00:00 NR -27.5972 119.472 main 0 0 __________P___ -1 -27.5972 119.472 7 24 143
1900061S15124 1900 7 SI WA NOT_NAMED 1900-03-07 06:00:00 NR -28.5815 120.303 main 0 0 __________P___ -1 -28.5815 120.303 7 25 143
1900061S15124 1900 7 SI WA NOT_NAMED 1900-03-07 09:00:00 NR -29.6000 121.183 main 0 0 __________P___ -1 -29.6000 121.183 7 26 142
1900061S15124 1900 7 SI WA NOT_NAMED 1900-03-07 12:00:00 NR -30.6000 122.100 main 0 0 __________O___ -1 -30.6000 122.100 7 24 142
1900061S15124 1900 7 SI WA NOT_NAMED 1900-03-07 15:00:00 NR -31.4768 122.904 main 0 0 __________P___ -1 -31.4768 122.904 7 22 141
1900061S15124 1900 7 SI WA NOT_NAMED 1900-03-07 18:00:00 NR -32.3323 123.759 main 0 0 __________P___ -1 -32.3323 123.759 7 23 138
1900061S15124 1900 7 SI WA NOT_NAMED 1900-03-07 21:00:00 NR -33.1973 124.757 main 33 33 __________P___ -1 -33.1973 124.757 7 26 133
1900061S15124 1900 7 SI WA NOT_NAMED 1900-03-08 00:00:00 NR -34.1000 126.000 main 171 171 __________O___ -1 -34.1000 126.000 7 30 128
1900061S15124 1900 7 SI WA NOT_NAMED 1900-03-08 03:00:00 NR -35.0590 127.612 main 314 314 __________P___ -1 -35.0590 127.612 7 35 124
1900061S15124 1900 7 SI WA NOT_NAMED 1900-03-08 06:00:00 NR -36.0402 129.495 main 461 426 __________P___ -1 -36.0402 129.495 7 37 122
1900061S15124 1900 7 SI WA NOT_NAMED 1900-03-08 09:00:00 NR -37.0248 131.556 main 413 339 __________P___ -1 -37.0248 131.556 7 39 120
1900061S15124 1900 7 SI WA NOT_NAMED 1900-03-08 12:00:00 NR -38.0000 133.700 main 339 310 __________O___ -1 -38.0000 133.700 7 39 120
1900061S15124 1900 7 SP EA NOT_NAMED 1900-03-08 15:00:00 NR -38.9602 135.847 main 332 302 __________P___ -1 -38.9602 135.847 7 38 120
1900061S15124 1900 7 SP EA NOT_NAMED 1900-03-08 18:00:00 NR -39.9017 138.001 main 304 284 __________P___ -1 -39.9017 138.001 7 38 119
1900061S15124 1900 7 SP EA NOT_NAMED 1900-03-08 21:00:00 NR -40.8180 140.179 main 286 201 __________P___ -1 -40.8180 140.179 7 38 118
1900061S15124 1900 7 SP EA NOT_NAMED 1900-03-09 00:00:00 NR -41.7000 142.400 main 193 __________O___ -1 -41.7000 142.400 7 38 118

About IBTrACS Database

This database is a web-friendly format of International Best Track Archive for Climate Stewardship (IBTrACS), a global best track data archive curated by NOAA dating back to 1842.

Updated: 2021-12-03